Belfast, Tennessee
Current Conditions -  °F | °C
As of 8:35 AM on Thursday 27 Nov 2014 (Local Time) from KSYI Reporting Station
Overcast Overcast  
Wind Chill: 31°   Ceiling: 2000
Heat Index: 37°   Visibility: 10mi
Dew Point: 34°   Wind: 8mph
Humidity: 87%   Direction: 320°NW
Pressure: 30.35"   Gusts: NA
Location:  35.42°N, 86.7°W
Report Text: KSYI 271435Z AUTO 32007KT 10SM BKN020 BKN028 OVC043 03/01 A3035 RMK
Loading
Personal Weather Stations






























Interactive Weather Map New forecast layout! Learn more

10-Day Weather Forecast

Advertisements
Track Severe Weather on mobile